For quick login in and fast entrance.
M’enregistrer FAQ Connexion 
Poster un nouveau sujet Répondre au sujet  [ 168 messages ]  Aller à la page 1, 2, 3, 4, 5 ... 12  Suivante

Dim 07 Mar 2021 20:27

 Décès de Olivier Dassault dans un crash d'hélicoptère
MessagePosté: Dim 07 Mar 2021 20:27 
Hors ligne
Maréchal de l'Air
Maréchal de l'Air
Avatar de l’utilisateur

Inscription: Lun 14 Mai 2012 10:02
Localisation: autour de BSN
Citation presse :

Citation:
.../... Olivier Dassault s’est tué ce dimanche dans un accident d’hélicoptère sur la commune de Touques, dans le Calvados. Le pilote serait également décédé. Il s’agissait d’un vol privé.../...

_________________
Abusus non tollit usum.


  
home Haut
 Profil  
Répondre en citant le message  
Aider le Site avec PayPal

Dim 07 Mar 2021 20:28

 Crash d'un hélicoptère en Normandie, décès d'Olivier Dassault
MessagePosté: Dim 07 Mar 2021 20:28 
Hors ligne
Observateur Avisé
Observateur Avisé
Avatar de l’utilisateur

Inscription: Mar 14 Nov 2006 17:36
Localisation: En France
Vers 18h00 ce dimanche, sur la commune de Touques dans le Calvados, un accident d'hélicoptère de type Airbus AS350 a eu pour conséquence le décès d'Olivier Dassault, fils ainé de Serge Dassault, député et capitaine d'industrie.
Le pilote de l'aéronef est également décédé dans le crash qui se serait produit au décollage d'une propriété privée.

Plus d'info à venir.

https://www.leparisien.fr/faits-divers/olivier-dassault-depute-et-fils-de-serge-dassault-meurt-dans-un-accident-dhelicoptere-07-03-2021-233EQG5AV5FB3HMA34HQN6ZGZQ.php

_________________
We are all made of stars !


Modifié en dernier par AL1 le Dim 07 Mar 2021 20:52, modifié 2 fois.

  
home Haut
 Profil  
Répondre en citant le message  

Dim 07 Mar 2021 20:38

 Re: Décès de Olivier Dassault dans un crash d'hélicoptère
MessagePosté: Dim 07 Mar 2021 20:38 
En ligne
Gonfleur d'Hélice
Gonfleur d'Hélice

Inscription: Ven 26 Jan 2007 09:51
Localisation: france
VALMY Image a écrit:
Citation presse :

Citation:
.../... Olivier Dassault s’est tué ce dimanche dans un accident d’hélicoptère sur la commune de Touques, dans le Calvados. Le pilote serait également décédé. Il s’agissait d’un vol privé.../...

ça touche tout le monde,
même si je préférait marcel ça fait drole
comme de margerin
comme quoi on est peut chose


  
home Haut
 Profil  
Répondre en citant le message  

Dim 07 Mar 2021 21:00

 Re: Crash d'un hélicoptère en Normandie, décès d'Olivier Dassault
MessagePosté: Dim 07 Mar 2021 21:00 
Hors ligne
Commandant des Nuages
Commandant des Nuages
Avatar de l’utilisateur

Inscription: Lun 30 Juil 2007 22:42


Le procureur de la République de Lisieux a par ailleurs confié l'enquête judiciaire à la Section de recherches de la Gendarmerie des transports aériens.

_________________
Il vaut mieux se taire et passer pour un <bip> plutôt que de parler et de ne laisser aucun doute à ce sujet . (Pierre Desproges)


Modifié en dernier par MACS le Dim 07 Mar 2021 21:06, modifié 1 fois.

  
home Haut
 Profil  
Répondre en citant le message  

Dim 07 Mar 2021 21:03

 Re: Crash d'un hélicoptère en Normandie, décès d'Olivier Dassault
MessagePosté: Dim 07 Mar 2021 21:03 
Hors ligne

Inscription: Mer 19 Déc 2018 15:16
METARs EXPIRÉS : LFRG Deauville

071800Z AUTO 03008KT CAVOK 03/M02 Q1023 NOSIG
071730Z AUTO 02008KT CAVOK 04/M03 Q1023 NOSIG
071700Z AUTO 01008KT CAVOK 05/M02 Q1023 NOSIG
071630Z AUTO 01010KT 340V040 CAVOK 06/M02 Q1023 NOSIG
071600Z AUTO 02008KT 340V050 CAVOK 06/M02 Q1023 NOSIG


  
home Haut
 Profil  
Répondre en citant le message  

Dim 07 Mar 2021 21:04

 Re: Crash d'un hélicoptère en Normandie, décès d'Olivier Dassault
MessagePosté: Dim 07 Mar 2021 21:04 
En ligne
Gonfleur d'Hélice
Gonfleur d'Hélice

Inscription: Ven 26 Jan 2007 09:51
Localisation: france
Raynie Image a écrit:
METARs EXPIRÉS : LFRG Deauville

071800Z AUTO 03008KT CAVOK 03/M02 Q1023 NOSIG
071730Z AUTO 02008KT CAVOK 04/M03 Q1023 NOSIG
071700Z AUTO 01008KT CAVOK 05/M02 Q1023 NOSIG
071630Z AUTO 01010KT 340V040 CAVOK 06/M02 Q1023 NOSIG
071600Z AUTO 02008KT 340V050 CAVOK 06/M02 Q1023 NOSIG

l'explication est ailleurs


  
home Haut
 Profil  
Répondre en citant le message  

Dim 07 Mar 2021 21:22

 Re: Crash d'un hélicoptère en Normandie, décès d'Olivier Dassault
MessagePosté: Dim 07 Mar 2021 21:22 
Hors ligne
Amiral de l'Air
Avatar de l’utilisateur

Inscription: Sam 29 Juin 2013 17:16
Localisation: Proche LFDH
Date : 07 mars 2021
Heure : 17h50
Type : Eurocopter AS 350B Ecureuil
Opérateur : Dolijet
Immatriculation : F-GIBM
N° de série : 1424
Année : 1981
Décès : 2 / Occupants : 2

Lieu : Touques (Calvados) - France

Image

_________________
"Aéronauticalement"
« Anything that can go wrong, will go wrong » Edward Murphy Jr.


Modifié en dernier par CTYONE le Dim 07 Mar 2021 21:24, modifié 1 fois.

  
home Haut
 Profil  
Répondre en citant le message  

Dim 07 Mar 2021 21:24

 Re: Crash d'un hélicoptère en Normandie, décès d'Olivier Dassault
MessagePosté: Dim 07 Mar 2021 21:24 
Hors ligne
Amiral de l'Air
Avatar de l’utilisateur

Inscription: Sam 29 Juin 2013 17:16
Localisation: Proche LFDH

_________________
"Aéronauticalement"
« Anything that can go wrong, will go wrong » Edward Murphy Jr.


  
home Haut
 Profil  
Répondre en citant le message  

Dim 07 Mar 2021 21:29

 Re: Crash d'un hélicoptère en Normandie, décès d'Olivier Dassault
MessagePosté: Dim 07 Mar 2021 21:29 
Hors ligne
Amiral de l'Air
Avatar de l’utilisateur

Inscription: Sam 29 Juin 2013 17:16
Localisation: Proche LFDH
Le société Dolijet a comme activité l'exploitation, la location et l'affrètement de moyens de transports et notamment, de moyens de transports aéronautiques.
Elle a été créée en décembre 2019 et Olivier Dassault en était le président.

_________________
"Aéronauticalement"
« Anything that can go wrong, will go wrong » Edward Murphy Jr.


  
home Haut
 Profil  
Répondre en citant le message  

Dim 07 Mar 2021 21:37

 Re: Crash d'un hélicoptère en Normandie, décès d'Olivier Dassault
MessagePosté: Dim 07 Mar 2021 21:37 
Hors ligne

Inscription: Mer 19 Déc 2018 15:16
On retrouve cet hélico dans cette compagnie également :

https://www.abchelico.com/#1


  
home Haut
 Profil  
Répondre en citant le message  

Dim 07 Mar 2021 21:51

 Re: Crash d'un hélicoptère en Normandie, décès d'Olivier Dassault
MessagePosté: Dim 07 Mar 2021 21:51 
Hors ligne
Gonfleur d'Hélice
Gonfleur d'Hélice

Inscription: Lun 29 Aoû 2011 19:26
Localisation: France Nord-Ouest
Assez étonnant l'AS530 étant très fiable, il a du se passer quelque chose de grave et soudain apriori, mécanique ou humain ?
Olivier Dassault avait peut être les commandes vu qu'il est un pilotes confirmé ?

_________________
Dans l'aviation, une initiative est une indiscipline qui à bien tournée...


Modifié en dernier par Sword le Dim 07 Mar 2021 21:57, modifié 1 fois.

  
home Haut
 Profil  
Répondre en citant le message  

Dim 07 Mar 2021 21:52

 Re: Crash d'un hélicoptère en Normandie, décès d'Olivier Dassault
MessagePosté: Dim 07 Mar 2021 21:52 
Hors ligne
Amiral de l'Air
Avatar de l’utilisateur

Inscription: Sam 29 Juin 2013 17:16
Localisation: Proche LFDH
Raynie Image a écrit:
On retrouve cet hélico dans cette compagnie également :

https://www.abchelico.com/#1

L'appareil est la propriété d'une société de leasing depuis le 10 février 2020 et loué par Dolijet depuis le 20 juillet 2020.

C'est un appareil qui est sorti d'usine en 1981 en tant que AS350D sous l'immatriculation N5784Y avant d'être transformé en AS350B en 2008.

_________________
"Aéronauticalement"
« Anything that can go wrong, will go wrong » Edward Murphy Jr.


  
home Haut
 Profil  
Répondre en citant le message  

Dim 07 Mar 2021 21:55

 Re: Crash d'un hélicoptère en Normandie, décès d'Olivier Dassault
MessagePosté: Dim 07 Mar 2021 21:55 
En ligne
Gonfleur d'Hélice
Gonfleur d'Hélice

Inscription: Ven 26 Jan 2007 09:51
Localisation: france
Sword Image a écrit:
Assez étonnant l'AS530 étant très fiable, il a du se passer quelque chose de grave et soudain apriori, mécanique ou humain ?

je pense que tu tiens l'explication,


  
home Haut
 Profil  
Répondre en citant le message  

Dim 07 Mar 2021 21:56

 Re: Crash d'un hélicoptère en Normandie, décès d'Olivier Dassault
MessagePosté: Dim 07 Mar 2021 21:56 
Hors ligne

Inscription: Mer 19 Déc 2018 15:16
La machine en question aux 24h du mans.

https://youtu.be/swqotJ5CMmU


  
home Haut
 Profil  
Répondre en citant le message  

Dim 07 Mar 2021 22:02

 Re: Crash d'un hélicoptère en Normandie, décès d'Olivier Dassault
MessagePosté: Dim 07 Mar 2021 22:02 
Hors ligne

Inscription: Jeu 09 Avr 2015 23:06
Raynie Image a écrit:
La machine en question aux 24h du mans.
https://youtu.be/swqotJ5CMmU

Comme ça ça marche mieux :
Code:
[youtube]swqotJ5CMmU[/youtube]




  
home Haut
 Profil  
Répondre en citant le message  
Afficher les messages postés depuis:  Trier par  
Poster un nouveau sujet Répondre au sujet  [ 168 messages ]  Aller à la page 1, 2, 3, 4, 5 ... 12  Suivante

Heures au format UTC + 1 heure [ Heure d’été ]


Qui est en ligne

Utilisateurs parcourant ce forum: Aucun utilisateur enregistré et 1 invité


Vous ne pouvez pas poster de nouveaux sujets
Vous ne pouvez pas répondre aux sujets
Vous ne pouvez pas éditer vos messages
Vous ne pouvez pas supprimer vos messages

Aller à:  
cron
Flux RSS Flux RSS Liste des flux Liste des flux
0 Développé par phpBB® Forum Software © phpBB Group
Traduction par phpBB-fr.com
phpBB SEO